Time;durP1;ratioP1;P1;durP2;ratioP2;P2;SDS_P1;SDS_P2;PMS_P1;PMS_P2;Temp;Humidity;BMP_temperature;BMP_pressure;BME280_temperature;BME280_humidity;BME280_pressure;Samples;Min_cycle;Max_cycle;Signal;HPM_P1;HPM_P2
2023/07/18 00:02:00;;;;;;;9.02;3.28;;;16.10;99.90;;;;;;5081586;28;20411;-67
2023/07/18 00:04:27;;;;;;;7.17;3.27;;;16.10;99.90;;;;;;5043519;28;20768;-68
2023/07/18 00:06:54;;;;;;;9.50;3.58;;;16.10;99.90;;;;;;5060804;28;20454;-67
2023/07/18 00:09:20;;;;;;;8.15;3.10;;;16.10;99.90;;;;;;5049303;28;20510;-68
2023/07/18 00:11:46;;;;;;;9.93;3.10;;;16.10;1.00;;;;;;5068867;28;20415;-68
2023/07/18 00:14:12;;;;;;;10.48;3.15;;;16.10;58.30;;;;;;5067716;28;20495;-68
2023/07/18 00:16:38;;;;;;;11.20;3.47;;;16.10;2.10;;;;;;5066805;28;21184;-68
2023/07/18 00:19:03;;;;;;;8.02;3.05;;;16.10;1.00;;;;;;5067340;28;20438;-68
2023/07/18 00:21:29;;;;;;;7.27;3.10;;;16.00;1.00;;;;;;5067415;28;20479;-68
2023/07/18 00:23:55;;;;;;;8.20;3.38;;;16.00;99.90;;;;;;5067579;28;20399;-68
2023/07/18 00:26:24;;;;;;;11.43;3.17;;;16.00;99.90;;;;;;5069736;28;20412;-68
2023/07/18 00:28:53;;;;;;;11.93;3.42;;;15.90;99.90;;;;;;5066825;28;20408;-68
2023/07/18 00:31:19;;;;;;;8.85;3.10;;;15.90;99.90;;;;;;5067381;28;20414;-68
2023/07/18 00:33:45;;;;;;;8.65;3.17;;;15.90;99.90;;;;;;5070536;28;20480;-68
2023/07/18 00:36:10;;;;;;;8.87;3.37;;;15.90;99.90;;;;;;5071909;28;20391;-67
2023/07/18 00:38:36;;;;;;;10.07;3.10;;;15.90;99.90;;;;;;5087021;28;20522;-68
2023/07/18 00:41:04;;;;;;;7.70;3.40;;;15.80;99.90;;;;;;5071149;28;20781;-68
2023/07/18 00:43:34;;;;;;;10.95;3.50;;;15.80;1.00;;;;;;5090308;28;20411;-67
2023/07/18 00:46:01;;;;;;;9.95;3.28;;;15.80;1.00;;;;;;5052736;28;20438;-68
2023/07/18 00:48:32;;;;;;;9.50;3.60;;;15.80;1.00;;;;;;5052384;28;20418;-68
2023/07/18 00:51:04;;;;;;;10.57;3.40;;;15.80;1.00;;;;;;5070548;28;20404;-67
2023/07/18 00:53:31;;;;;;;9.43;3.30;;;15.70;1.00;;;;;;5072962;28;20458;-67
2023/07/18 00:55:56;;;;;;;9.90;3.85;;;15.70;1.00;;;;;;5073424;28;20412;-68
2023/07/18 00:58:23;;;;;;;8.83;3.40;;;15.70;1.00;;;;;;5070993;28;21016;-67
2023/07/18 01:00:49;;;;;;;7.10;3.13;;;15.60;3.10;;;;;;5070563;28;20435;-68
2023/07/18 01:03:16;;;;;;;11.10;3.53;;;15.60;53.80;;;;;;5071024;28;20929;-67
2023/07/18 01:05:41;;;;;;;9.23;3.63;;;15.60;24.00;;;;;;5070496;28;20408;-68
2023/07/18 01:08:07;;;;;;;7.90;3.13;;;15.60;66.60;;;;;;5076876;28;20398;-67
2023/07/18 01:10:33;;;;;;;11.40;3.80;;;15.60;99.90;;;;;;5070215;28;20399;-67
2023/07/18 01:13:01;;;;;;;11.40;4.10;;;15.60;99.90;;;;;;5070598;28;20410;-67
2023/07/18 01:15:34;;;;;;;9.10;3.40;;;15.60;99.90;;;;;;5070084;28;20395;-68
2023/07/18 01:18:03;;;;;;;11.48;3.40;;;15.60;99.90;;;;;;5070894;28;20514;-68
2023/07/18 01:20:29;;;;;;;8.50;3.28;;;15.60;99.90;;;;;;5052031;28;20407;-68
2023/07/18 01:23:00;;;;;;;10.40;3.58;;;15.50;99.90;;;;;;5071122;28;20418;-67
2023/07/18 01:25:26;;;;;;;8.20;3.50;;;15.50;99.90;;;;;;5070101;28;20471;-67
2023/07/18 01:27:55;;;;;;;9.93;3.55;;;15.50;99.90;;;;;;5054099;28;20835;-67
2023/07/18 01:30:24;;;;;;;6.32;2.83;;;15.40;99.90;;;;;;5071032;28;20412;-67
2023/07/18 01:32:52;;;;;;;10.05;3.47;;;15.40;99.90;;;;;;5069631;28;20924;-67
2023/07/18 01:35:19;;;;;;;10.48;3.17;;;15.40;99.90;;;;;;5069839;28;20445;-67
2023/07/18 01:37:46;;;;;;;12.60;3.80;;;15.40;99.90;;;;;;5069705;28;20407;-67
2023/07/18 01:40:13;;;;;;;11.57;3.42;;;15.30;99.90;;;;;;5059466;28;20941;-67
2023/07/18 01:42:40;;;;;;;11.00;3.47;;;15.30;99.90;;;;;;5051526;28;20404;-67
2023/07/18 01:45:06;;;;;;;10.93;3.88;;;15.20;99.90;;;;;;5084265;28;20418;-68
2023/07/18 01:47:32;;;;;;;9.45;3.50;;;15.30;99.90;;;;;;5074932;28;20432;-68
2023/07/18 01:50:04;;;;;;;8.45;3.13;;;15.20;99.90;;;;;;5068176;28;20891;-67
2023/07/18 01:52:33;;;;;;;11.23;3.75;;;15.30;99.90;;;;;;5069085;28;20431;-67
2023/07/18 01:55:00;;;;;;;11.05;3.70;;;15.20;99.90;;;;;;5051759;28;20457;-67
2023/07/18 01:57:31;;;;;;;10.52;3.60;;;15.20;99.90;;;;;;5069587;28;20396;-67
2023/07/18 01:59:59;;;;;;;10.40;3.30;;;15.20;99.90;;;;;;5069064;28;20450;-67
2023/07/18 02:02:27;;;;;;;10.30;3.72;;;15.20;99.90;;;;;;5069229;28;20971;-67
2023/07/18 02:04:52;;;;;;;11.00;3.60;;;15.20;99.90;;;;;;5068960;28;20785;-67
2023/07/18 02:07:18;;;;;;;10.10;3.80;;;15.20;99.90;;;;;;5051774;28;20495;-68
2023/07/18 02:09:43;;;;;;;9.07;3.20;;;15.10;99.90;;;;;;5069931;28;20444;-68
2023/07/18 02:12:09;;;;;;;9.20;3.37;;;15.10;99.90;;;;;;5069102;28;20400;-68
2023/07/18 02:14:38;;;;;;;12.45;3.63;;;15.10;99.90;;;;;;5068589;28;21193;-68
2023/07/18 02:17:04;;;;;;;10.88;3.75;;;15.10;99.90;;;;;;5083764;28;20411;-67
2023/07/18 02:19:30;;;;;;;8.05;3.30;;;15.10;99.90;;;;;;5068170;28;20450;-68
2023/07/18 02:21:55;;;;;;;10.90;3.83;;;15.10;99.90;;;;;;5068839;28;20916;-68
2023/07/18 02:24:21;;;;;;;10.50;3.63;;;15.00;99.90;;;;;;5057148;28;20410;-68
2023/07/18 02:26:47;;;;;;;11.13;3.78;;;15.10;99.90;;;;;;5069665;28;20415;-68
2023/07/18 02:29:13;;;;;;;10.10;3.70;;;15.10;99.90;;;;;;5069068;28;20498;-68
2023/07/18 02:31:39;;;;;;;11.60;3.75;;;15.10;99.90;;;;;;5068698;28;20920;-68
2023/07/18 02:34:05;;;;;;;11.00;3.80;;;15.00;99.90;;;;;;5074010;28;20406;-67
2023/07/18 02:36:31;;;;;;;11.77;4.18;;;15.00;99.90;;;;;;5068565;28;20494;-68
2023/07/18 02:38:57;;;;;;;9.10;3.72;;;15.00;99.90;;;;;;5068039;28;20440;-68
2023/07/18 02:41:23;;;;;;;10.73;4.10;;;15.00;99.90;;;;;;5068636;28;20403;-68
2023/07/18 02:43:49;;;;;;;10.43;3.67;;;15.00;99.90;;;;;;5068567;28;20392;-67
2023/07/18 02:46:14;;;;;;;12.40;4.13;;;15.00;99.90;;;;;;5071855;28;20481;-67
2023/07/18 02:48:40;;;;;;;12.83;4.10;;;15.10;99.90;;;;;;5074201;28;20823;-68
2023/07/18 02:51:06;;;;;;;11.98;3.85;;;15.10;99.90;;;;;;5070512;28;20499;-68
2023/07/18 02:53:31;;;;;;;11.68;4.30;;;15.10;99.90;;;;;;5068543;28;20399;-67
2023/07/18 02:55:57;;;;;;;10.87;3.63;;;15.10;99.90;;;;;;5073546;28;20415;-68
2023/07/18 02:58:22;;;;;;;11.53;3.80;;;15.10;99.90;;;;;;5067978;28;20418;-67
2023/07/18 03:00:51;;;;;;;11.25;3.97;;;15.10;99.90;;;;;;5068365;28;20408;-67
2023/07/18 03:03:17;;;;;;;15.50;4.25;;;15.10;99.90;;;;;;5062086;28;20475;-68
2023/07/18 03:05:42;;;;;;;12.38;3.92;;;15.00;99.90;;;;;;5050117;28;20491;-68
2023/07/18 03:08:08;;;;;;;10.20;3.60;;;15.00;99.90;;;;;;5068246;28;20415;-68
2023/07/18 03:10:34;;;;;;;10.77;3.80;;;15.00;99.90;;;;;;5070999;28;20776;-67
2023/07/18 03:13:00;;;;;;;11.90;3.92;;;14.90;99.90;;;;;;5061845;28;20403;-68
2023/07/18 03:15:26;;;;;;;11.40;3.80;;;14.90;99.90;;;;;;5083905;28;20412;-67
2023/07/18 03:17:51;;;;;;;9.32;4.30;;;14.90;1.00;;;;;;5049809;28;20412;-68
2023/07/18 03:20:17;;;;;;;11.93;4.27;;;14.90;1.00;;;;;;5089682;28;20505;-67
2023/07/18 03:22:48;;;;;;;12.80;4.20;;;14.90;1.00;;;;;;5050452;28;20423;-68
2023/07/18 03:25:14;;;;;;;14.30;4.22;;;14.90;1.00;;;;;;5050044;28;20443;-67
2023/07/18 03:27:39;;;;;;;10.07;4.07;;;14.90;1.00;;;;;;5067428;28;20450;-67
2023/07/18 03:30:06;;;;;;;10.80;3.85;;;14.90;1.00;;;;;;5067905;28;20403;-67
2023/07/18 03:32:33;;;;;;;10.82;4.35;;;14.90;1.00;;;;;;5049348;28;20452;-67
2023/07/18 03:34:59;;;;;;;11.50;3.90;;;14.90;1.00;;;;;;5067861;28;20619;-68
2023/07/18 03:37:27;;;;;;;10.20;4.30;;;14.90;1.00;;;;;;5061908;28;20417;-67
2023/07/18 03:39:53;;;;;;;11.15;3.95;;;14.90;1.00;;;;;;5067848;28;21035;-67
2023/07/18 03:42:19;;;;;;;12.52;3.83;;;14.80;1.00;;;;;;5088255;28;20409;-67
2023/07/18 03:44:44;;;;;;;11.63;3.80;;;14.80;1.00;;;;;;5048836;28;20408;-67
2023/07/18 03:47:11;;;;;;;13.10;4.33;;;14.80;1.00;;;;;;5071884;28;20446;-68
2023/07/18 03:49:36;;;;;;;11.35;4.30;;;14.80;1.00;;;;;;5067574;28;20483;-68
2023/07/18 03:52:03;;;;;;;15.02;4.25;;;14.80;1.00;;;;;;5068813;28;20620;-67
2023/07/18 03:54:28;;;;;;;11.25;3.63;;;14.90;1.00;;;;;;5065288;28;20411;-67
2023/07/18 03:56:54;;;;;;;12.85;4.03;;;14.80;1.00;;;;;;5067477;28;20412;-68
2023/07/18 03:59:20;;;;;;;12.43;4.63;;;14.90;1.00;;;;;;5063187;28;20585;-68
2023/07/18 04:01:46;;;;;;;14.80;4.47;;;14.80;1.00;;;;;;5077871;28;20780;-67
2023/07/18 04:04:12;;;;;;;9.80;4.13;;;14.80;1.00;;;;;;5069584;28;20409;-68
2023/07/18 04:06:38;;;;;;;13.02;4.20;;;14.80;1.00;;;;;;5071839;28;20489;-67
2023/07/18 04:09:05;;;;;;;12.63;4.20;;;14.80;1.00;;;;;;5071403;28;20438;-68
2023/07/18 04:11:31;;;;;;;12.18;3.97;;;14.80;1.00;;;;;;5071251;28;20407;-67
2023/07/18 04:13:56;;;;;;;13.05;4.45;;;14.80;1.00;;;;;;5071062;28;20403;-68
2023/07/18 04:16:22;;;;;;;10.67;4.07;;;14.80;1.00;;;;;;5086634;28;20411;-67
2023/07/18 04:18:48;;;;;;;11.20;4.28;;;14.80;1.00;;;;;;5071634;28;20433;-67
2023/07/18 04:21:13;;;;;;;14.37;4.23;;;14.80;1.00;;;;;;5052140;28;20530;-67
2023/07/18 04:23:39;;;;;;;11.27;4.13;;;14.80;1.00;;;;;;5052547;28;20443;-68
2023/07/18 04:26:04;;;;;;;13.17;4.00;;;14.90;1.00;;;;;;5070814;28;20893;-67
2023/07/18 04:28:34;;;;;;;11.30;3.60;;;14.90;1.00;;;;;;5052471;28;20411;-68
2023/07/18 04:31:00;;;;;;;13.90;4.67;;;14.90;1.00;;;;;;5072955;28;20421;-69
2023/07/18 04:33:25;;;;;;;13.83;4.67;;;14.90;1.00;;;;;;5071956;28;20489;-68
2023/07/18 04:35:51;;;;;;;11.68;3.95;;;15.00;1.00;;;;;;5072939;28;20463;-67
2023/07/18 04:38:17;;;;;;;11.17;4.00;;;15.00;1.00;;;;;;5066223;28;20399;-67
2023/07/18 04:40:43;;;;;;;14.13;4.20;;;15.00;1.00;;;;;;5069821;28;20885;-67
2023/07/18 04:43:09;;;;;;;12.63;4.50;;;15.00;1.00;;;;;;5069502;28;20549;-67
2023/07/18 04:45:44;;;;;;;12.05;3.97;;;15.00;1.00;;;;;;5071051;28;20469;-68
2023/07/18 04:48:11;;;;;;;15.25;4.78;;;15.10;1.00;;;;;;5071045;28;20493;-67
2023/07/18 04:50:37;;;;;;;13.88;4.35;;;15.10;1.00;;;;;;5053073;28;20416;-67
2023/07/18 04:53:03;;;;;;;12.33;4.03;;;15.20;1.00;;;;;;5053007;28;20523;-67
2023/07/18 04:55:28;;;;;;;15.38;5.07;;;15.20;1.00;;;;;;5070229;28;20399;-67
2023/07/18 04:57:54;;;;;;;12.27;4.43;;;15.30;1.00;;;;;;5052913;28;20468;-67
2023/07/18 05:00:19;;;;;;;11.65;4.78;;;15.30;1.00;;;;;;5055208;28;20455;-68
2023/07/18 05:02:45;;;;;;;12.73;4.27;;;15.30;1.00;;;;;;5059824;28;20404;-67
2023/07/18 05:05:11;;;;;;;13.77;5.00;;;15.30;1.00;;;;;;5072681;28;20913;-68
2023/07/18 05:07:36;;;;;;;12.57;4.43;;;15.40;1.00;;;;;;5073420;28;20412;-67
2023/07/18 05:10:02;;;;;;;14.77;4.20;;;15.40;1.00;;;;;;5079211;28;20438;-68
2023/07/18 05:12:27;;;;;;;13.30;4.00;;;15.50;1.00;;;;;;5072616;28;20407;-68
2023/07/18 05:14:53;;;;;;;16.67;4.53;;;15.60;1.00;;;;;;5071473;28;20413;-67
2023/07/18 05:17:19;;;;;;;12.70;4.53;;;15.50;1.00;;;;;;5079087;28;20408;-67
2023/07/18 05:19:45;;;;;;;10.73;4.03;;;15.60;1.00;;;;;;5074846;28;20426;-66
2023/07/18 05:22:11;;;;;;;12.90;4.40;;;15.60;1.00;;;;;;5075843;28;20533;-67
2023/07/18 05:24:37;;;;;;;11.80;4.20;;;15.60;1.00;;;;;;5071212;28;20458;-67
2023/07/18 05:27:02;;;;;;;18.05;5.05;;;15.80;1.00;;;;;;5069670;28;20476;-67
2023/07/18 05:29:28;;;;;;;10.53;4.40;;;15.80;1.00;;;;;;5069605;28;21155;-68
2023/07/18 05:31:54;;;;;;;13.23;4.57;;;15.80;1.00;;;;;;5067955;28;21016;-67
2023/07/18 05:34:19;;;;;;;12.33;4.40;;;15.90;1.00;;;;;;5069336;28;20491;-67
2023/07/18 05:36:45;;;;;;;12.57;4.70;;;15.90;1.00;;;;;;5069854;28;20445;-67
2023/07/18 05:39:11;;;;;;;12.52;4.85;;;16.00;1.00;;;;;;5085389;28;20837;-67
2023/07/18 05:41:36;;;;;;;13.23;4.77;;;16.00;1.00;;;;;;5069296;28;20404;-68
2023/07/18 05:44:02;;;;;;;13.10;4.63;;;16.00;1.00;;;;;;5069900;28;21143;-67
2023/07/18 05:46:27;;;;;;;15.87;5.03;;;16.10;1.00;;;;;;5069187;28;20493;-67
2023/07/18 05:48:54;;;;;;;12.32;4.55;;;16.20;1.00;;;;;;5085517;28;20757;-68
2023/07/18 05:51:20;;;;;;;14.23;4.20;;;16.20;1.00;;;;;;5069532;28;20412;-67
2023/07/18 05:53:45;;;;;;;11.30;4.85;;;16.30;1.00;;;;;;5069461;28;20411;-68
2023/07/18 05:56:11;;;;;;;15.07;4.70;;;16.40;1.00;;;;;;5069626;28;20404;-67
2023/07/18 05:58:36;;;;;;;11.47;4.63;;;16.40;1.00;;;;;;5069709;28;20454;-67
2023/07/18 06:01:02;;;;;;;13.43;4.35;;;16.40;1.00;;;;;;5069244;28;20414;-68
2023/07/18 06:03:28;;;;;;;15.67;4.80;;;16.40;1.00;;;;;;5068663;28;20396;-67
2023/07/18 06:05:55;;;;;;;14.15;4.53;;;16.40;1.00;;;;;;5051039;28;20762;-67
2023/07/18 06:08:21;;;;;;;12.30;4.57;;;16.50;1.00;;;;;;5084726;28;20916;-68
2023/07/18 06:10:47;;;;;;;13.63;4.72;;;16.50;1.00;;;;;;5069517;28;20400;-68
2023/07/18 06:13:13;;;;;;;16.33;4.80;;;16.60;1.00;;;;;;5069251;28;20398;-67
2023/07/18 06:15:39;;;;;;;16.27;4.47;;;16.70;1.00;;;;;;5069041;28;20396;-68
2023/07/18 06:18:04;;;;;;;16.17;5.28;;;16.70;1.00;;;;;;5068873;28;20799;-68
2023/07/18 06:20:32;;;;;;;15.47;5.37;;;16.80;1.00;;;;;;5084124;28;20440;-68
2023/07/18 06:22:59;;;;;;;13.48;4.70;;;16.80;1.00;;;;;;5068764;28;20757;-68
2023/07/18 06:25:24;;;;;;;13.77;4.78;;;16.90;1.00;;;;;;5068870;28;20392;-68
2023/07/18 06:27:50;;;;;;;13.90;5.10;;;17.00;1.00;;;;;;5084885;28;20920;-68
2023/07/18 06:30:17;;;;;;;17.07;5.20;;;17.00;1.00;;;;;;5068153;28;20885;-67
2023/07/18 06:32:42;;;;;;;14.23;4.90;;;17.10;1.00;;;;;;5033748;28;20415;-68
2023/07/18 06:35:10;;;;;;;14.60;5.07;;;17.20;1.00;;;;;;5068351;28;20416;-68
2023/07/18 06:37:36;;;;;;;13.52;4.93;;;17.20;1.00;;;;;;5068539;28;20880;-68
2023/07/18 06:40:02;;;;;;;12.00;4.68;;;17.30;1.00;;;;;;5050349;28;20454;-67
2023/07/18 06:42:28;;;;;;;13.52;5.10;;;17.30;1.00;;;;;;5084218;28;20537;-67
2023/07/18 06:44:54;;;;;;;14.90;4.90;;;17.30;1.00;;;;;;5068328;28;20442;-68
2023/07/18 06:47:19;;;;;;;12.30;4.85;;;17.40;1.00;;;;;;5050510;28;20450;-68
2023/07/18 06:49:45;;;;;;;13.83;4.97;;;17.40;1.00;;;;;;5033512;28;20418;-67
2023/07/18 06:52:11;;;;;;;12.20;4.70;;;17.50;1.00;;;;;;5050533;28;20457;-68
2023/07/18 06:54:36;;;;;;;11.85;4.80;;;17.50;1.00;;;;;;5068601;28;20403;-67
2023/07/18 06:57:02;;;;;;;19.03;6.10;;;17.60;1.00;;;;;;5068430;28;20487;-68
2023/07/18 06:59:27;;;;;;;18.80;6.32;;;17.60;1.00;;;;;;5067952;28;20456;-67
2023/07/18 07:01:53;;;;;;;17.20;5.47;;;17.60;1.00;;;;;;5067683;28;20407;-67
2023/07/18 07:04:19;;;;;;;17.57;6.07;;;17.60;1.00;;;;;;5067101;28;20403;-68
2023/07/18 07:06:45;;;;;;;14.82;5.60;;;17.70;1.00;;;;;;5066939;28;20396;-68
2023/07/18 07:09:13;;;;;;;10.98;4.75;;;17.70;1.00;;;;;;5049721;28;20411;-67
2023/07/18 07:11:39;;;;;;;15.25;5.65;;;17.80;1.00;;;;;;5082872;28;20423;-68
2023/07/18 07:14:06;;;;;;;16.60;5.77;;;17.90;1.00;;;;;;5067265;28;20400;-67
2023/07/18 07:16:33;;;;;;;15.18;5.13;;;17.80;1.00;;;;;;5066978;28;20411;-68
2023/07/18 07:18:58;;;;;;;14.10;5.03;;;17.90;1.00;;;;;;5066742;28;20432;-67
2023/07/18 07:21:24;;;;;;;13.53;5.53;;;17.90;1.00;;;;;;5067038;28;20403;-68
2023/07/18 07:23:50;;;;;;;14.27;4.95;;;17.90;1.00;;;;;;5066486;28;20401;-68
2023/07/18 07:26:17;;;;;;;14.67;5.97;;;18.00;1.00;;;;;;5083021;28;20415;-68
2023/07/18 07:28:42;;;;;;;14.88;5.47;;;18.00;1.00;;;;;;5066540;28;20407;-68
2023/07/18 07:31:08;;;;;;;13.27;5.60;;;18.00;1.00;;;;;;5066753;28;20407;-68
2023/07/18 07:33:33;;;;;;;14.95;5.40;;;18.10;1.00;;;;;;5048404;28;20504;-68
2023/07/18 07:35:59;;;;;;;13.27;5.07;;;18.20;1.00;;;;;;5066955;28;20770;-68
2023/07/18 07:38:25;;;;;;;15.35;5.50;;;18.40;1.00;;;;;;5066395;28;20457;-68
2023/07/18 07:40:50;;;;;;;15.80;5.37;;;18.50;1.00;;;;;;5048329;28;20400;-68
2023/07/18 07:43:16;;;;;;;13.87;5.47;;;18.60;1.00;;;;;;5066158;28;21356;-68
2023/07/18 07:45:42;;;;;;;15.00;4.60;;;18.50;1.00;;;;;;5065763;28;20412;-68
2023/07/18 07:48:07;;;;;;;18.60;4.77;;;18.60;1.00;;;;;;5081834;28;20468;-68
2023/07/18 07:50:33;;;;;;;14.13;4.68;;;18.60;1.00;;;;;;5066821;28;20400;-68
2023/07/18 07:52:59;;;;;;;14.82;4.45;;;18.70;1.00;;;;;;5066708;28;20490;-68
2023/07/18 07:55:25;;;;;;;13.52;4.10;;;18.90;1.00;;;;;;5066343;28;20559;-68
2023/07/18 07:57:50;;;;;;;11.77;4.03;;;19.10;1.00;;;;;;5066406;28;20407;-68
2023/07/18 08:00:16;;;;;;;13.63;4.22;;;19.20;1.00;;;;;;5082283;28;20500;-68
2023/07/18 08:02:42;;;;;;;15.70;4.63;;;19.10;1.00;;;;;;5066595;28;21194;-68
2023/07/18 08:05:08;;;;;;;15.23;4.70;;;19.20;1.00;;;;;;5048869;28;20462;-68
2023/07/18 08:07:33;;;;;;;13.43;3.60;;;19.40;1.00;;;;;;5065958;28;20415;-68
2023/07/18 08:09:59;;;;;;;11.77;3.80;;;19.60;1.00;;;;;;5066509;28;20400;-68
2023/07/18 08:12:25;;;;;;;13.17;3.47;;;19.80;1.00;;;;;;5066368;28;21045;-68
2023/07/18 08:14:50;;;;;;;11.05;3.40;;;19.90;99.90;;;;;;5066380;28;20471;-68
2023/07/18 08:17:16;;;;;;;10.93;3.00;;;20.00;99.90;;;;;;5066435;28;20431;-68
2023/07/18 08:19:42;;;;;;;9.85;3.00;;;20.10;99.90;;;;;;5066879;28;20445;-68
2023/07/18 08:22:09;;;;;;;11.20;2.63;;;20.10;99.90;;;;;;5082610;28;21094;-68
2023/07/18 08:24:34;;;;;;;9.73;2.08;;;20.20;99.90;;;;;;5067453;28;20816;-69
2023/07/18 08:27:00;;;;;;;8.20;1.90;;;20.30;99.90;;;;;;5067230;28;20410;-68
2023/07/18 08:29:32;;;;;;;12.25;2.45;;;20.40;99.90;;;;;;5067329;28;20497;-68
2023/07/18 08:31:58;;;;;;;9.65;2.33;;;20.60;99.90;;;;;;5067050;28;20400;-68
2023/07/18 08:34:24;;;;;;;8.85;1.80;;;20.80;99.90;;;;;;5067144;28;20396;-68
2023/07/18 08:36:50;;;;;;;7.97;1.83;;;20.80;1.00;;;;;;5067250;28;20526;-68
2023/07/18 08:39:16;;;;;;;7.67;2.20;;;20.80;99.90;;;;;;5082656;28;20423;-68
2023/07/18 08:41:43;;;;;;;8.93;1.77;;;20.80;99.90;;;;;;5067060;28;20404;-68
2023/07/18 08:44:12;;;;;;;10.02;2.10;;;20.80;99.90;;;;;;5066411;28;20553;-69
2023/07/18 08:46:38;;;;;;;10.88;2.47;;;20.80;99.90;;;;;;5065584;28;20486;-68
2023/07/18 08:49:05;;;;;;;7.95;2.22;;;20.90;99.90;;;;;;5067176;28;20901;-68
2023/07/18 08:51:31;;;;;;;8.45;1.98;;;20.90;46.80;;;;;;5066332;28;20770;-69
2023/07/18 08:53:57;;;;;;;7.80;2.10;;;20.90;1.00;;;;;;5082798;28;20400;-68
2023/07/18 08:56:24;;;;;;;8.57;1.75;;;20.90;1.00;;;;;;5070364;28;20404;-68
2023/07/18 08:58:50;;;;;;;6.75;1.77;;;20.90;99.90;;;;;;5070199;28;20430;-68
2023/07/18 09:01:16;;;;;;;7.68;1.70;;;21.00;99.90;;;;;;5070127;28;20762;-68
2023/07/18 09:03:42;;;;;;;7.60;1.55;;;21.10;99.90;;;;;;5086022;28;20412;-68
2023/07/18 09:06:18;;;;;;;7.63;1.50;;;21.10;99.90;;;;;;5070227;28;20445;-68
2023/07/18 09:08:44;;;;;;;5.88;1.38;;;21.00;99.90;;;;;;5070110;28;20411;-68
2023/07/18 09:11:14;;;;;;;6.25;1.25;;;21.00;99.90;;;;;;5070577;28;20438;-68
2023/07/18 09:13:42;;;;;;;7.15;1.38;;;20.90;1.00;;;;;;5085753;28;20450;-68
2023/07/18 09:16:21;;;;;;;5.57;1.27;;;20.90;99.90;;;;;;5052339;28;20443;-68
2023/07/18 09:18:54;;;;;;;5.90;1.08;;;21.00;99.90;;;;;;5069665;28;20438;-68
2023/07/18 09:21:22;;;;;;;8.23;1.60;;;21.20;75.90;;;;;;5070020;28;20403;-69
2023/07/18 09:23:49;;;;;;;5.93;1.17;;;21.30;24.20;;;;;;5069861;28;20484;-68
2023/07/18 09:26:19;;;;;;;7.53;1.40;;;21.50;99.90;;;;;;5052141;28;20403;-68
2023/07/18 09:28:46;;;;;;;5.03;1.50;;;21.70;99.90;;;;;;5069775;28;20414;-68
2023/07/18 09:31:23;;;;;;;5.45;1.20;;;21.90;99.90;;;;;;5051752;28;20458;-68
2023/07/18 09:33:51;;;;;;;6.30;1.38;;;22.00;99.90;;;;;;5051690;28;20423;-68
2023/07/18 09:36:19;;;;;;;8.13;1.80;;;22.10;1.00;;;;;;5069169;28;20469;-68
2023/07/18 09:38:46;;;;;;;5.78;1.55;;;22.00;99.90;;;;;;5056753;28;20420;-68
2023/07/18 09:41:13;;;;;;;6.50;1.10;;;22.00;99.90;;;;;;5069784;28;20545;-68
2023/07/18 09:43:42;;;;;;;5.82;1.10;;;22.10;99.90;;;;;;5085118;28;20413;-68
2023/07/18 09:46:11;;;;;;;5.10;1.10;;;22.10;99.90;;;;;;5068749;28;20407;-68
2023/07/18 09:48:39;;;;;;;5.28;1.10;;;22.40;99.90;;;;;;5069361;28;20482;-68
2023/07/18 09:51:08;;;;;;;5.03;0.90;;;23.00;99.90;;;;;;5051371;28;20773;-69
2023/07/18 09:53:36;;;;;;;7.47;1.00;;;23.50;53.00;;;;;;5069634;28;20403;-68
2023/07/18 09:56:03;;;;;;;3.70;0.88;;;23.60;1.00;;;;;;5068716;28;20437;-68
2023/07/18 09:58:30;;;;;;;6.35;1.00;;;23.40;99.90;;;;;;5068858;28;20764;-68
2023/07/18 10:00:57;;;;;;;5.38;1.05;;;23.20;99.90;;;;;;5050853;28;20411;-69
2023/07/18 10:03:23;;;;;;;6.03;1.10;;;23.10;99.90;;;;;;5084657;28;20931;-69
2023/07/18 10:05:49;;;;;;;5.50;1.30;;;23.10;99.90;;;;;;5050487;28;20424;-68
2023/07/18 10:08:15;;;;;;;5.88;1.20;;;22.90;99.90;;;;;;5069296;28;20514;-68
2023/07/18 10:10:41;;;;;;;4.80;0.80;;;22.80;99.90;;;;;;5069457;28;20471;-68
2023/07/18 10:13:07;;;;;;;3.00;0.68;;;22.70;99.90;;;;;;5068838;28;20431;-68
2023/07/18 10:16:14;;;;;;;4.60;0.90;;;22.70;99.90;;;;;;5068831;28;20408;-68
2023/07/18 10:18:50;;;;;;;4.77;0.80;;;22.80;99.90;;;;;;5050637;28;20436;-68
2023/07/18 10:21:37;;;;;;;4.97;1.10;;;23.20;99.90;;;;;;5083768;28;20423;-68
2023/07/18 10:24:35;;;;;;;4.93;1.00;;;23.60;99.90;;;;;;5068753;28;20411;-69
2023/07/18 10:27:07;;;;;;;5.18;0.80;;;24.10;42.60;;;;;;5006965;28;20489;-68
2023/07/18 10:29:41;;;;;;;4.75;0.90;;;24.50;26.20;;;;;;5069324;28;20426;-68
2023/07/18 10:32:10;;;;;;;5.00;1.08;;;25.00;1.00;;;;;;5068570;28;20396;-69
2023/07/18 10:34:39;;;;;;;5.53;0.88;;;25.60;1.00;;;;;;5084204;28;20408;-69
2023/07/18 10:37:07;;;;;;;4.95;1.08;;;25.90;1.00;;;;;;5067615;28;20400;-68
2023/07/18 10:39:44;;;;;;;4.90;0.97;;;25.80;99.90;;;;;;5068537;28;20432;-68
2023/07/18 10:42:20;;;;;;;4.90;1.00;;;25.60;99.90;;;;;;5068950;28;20419;-68
2023/07/18 10:44:57;;;;;;;3.47;1.00;;;25.20;99.90;;;;;;5068355;28;20418;-69
2023/07/18 10:47:23;;;;;;;5.75;1.15;;;25.00;99.90;;;;;;5067980;28;20492;-68
2023/07/18 10:49:49;;;;;;;4.63;1.00;;;24.90;99.90;;;;;;5068229;28;20435;-68
2023/07/18 10:52:16;;;;;;;4.97;1.02;;;24.80;99.90;;;;;;5050409;28;20447;-69
2023/07/18 10:54:50;;;;;;;6.10;1.20;;;24.60;99.90;;;;;;5068184;28;20453;-69
2023/07/18 10:57:16;;;;;;;5.13;1.20;;;24.60;99.90;;;;;;5050689;28;20419;-68
2023/07/18 10:59:44;;;;;;;4.40;1.17;;;24.70;99.90;;;;;;5067828;28;20420;-68
2023/07/18 11:02:10;;;;;;;4.88;1.15;;;25.10;99.90;;;;;;5050148;28;20404;-68
2023/07/18 11:04:36;;;;;;;4.93;1.20;;;25.50;99.90;;;;;;5067937;28;20400;-68
2023/07/18 11:07:02;;;;;;;6.30;1.17;;;25.60;99.90;;;;;;5067935;28;20439;-68
2023/07/18 11:09:28;;;;;;;6.75;1.10;;;25.80;99.90;;;;;;5067541;28;20404;-69
2023/07/18 11:11:54;;;;;;;4.13;0.97;;;26.10;99.90;;;;;;5067455;28;20448;-69
2023/07/18 11:14:20;;;;;;;6.72;1.15;;;26.20;99.90;;;;;;5067209;28;20766;-69
2023/07/18 11:16:46;;;;;;;6.23;1.13;;;26.10;99.90;;;;;;5066894;28;20415;-68
2023/07/18 11:19:13;;;;;;;7.07;1.38;;;25.90;99.90;;;;;;5068167;28;20423;-68
2023/07/18 11:21:39;;;;;;;5.53;1.48;;;25.60;99.90;;;;;;5068272;28;20411;-68
2023/07/18 11:24:05;;;;;;;5.80;1.17;;;25.30;99.90;;;;;;5067607;28;20392;-68
2023/07/18 11:26:31;;;;;;;5.67;1.10;;;25.00;99.90;;;;;;5067878;28;20902;-68
2023/07/18 11:28:57;;;;;;;5.40;1.13;;;24.80;99.90;;;;;;5082614;28;20407;-68
2023/07/18 11:31:41;;;;;;;5.13;1.20;;;24.60;99.90;;;;;;5083406;28;20494;-69
2023/07/18 11:34:07;;;;;;;5.38;1.15;;;24.50;99.90;;;;;;5067956;28;20460;-68
2023/07/18 11:36:37;;;;;;;9.10;1.30;;;24.30;99.90;;;;;;5066827;28;20479;-68
2023/07/18 11:39:15;;;;;;;8.88;1.60;;;24.20;99.90;;;;;;5049715;28;20439;-68
2023/07/18 11:41:40;;;;;;;4.88;1.13;;;24.10;99.90;;;;;;5032944;28;20404;-68
2023/07/18 11:44:08;;;;;;;4.90;1.20;;;24.00;99.90;;;;;;5068039;28;20422;-68
2023/07/18 11:46:37;;;;;;;5.28;1.35;;;24.00;99.90;;;;;;5047075;28;20409;-68
2023/07/18 11:49:04;;;;;;;4.38;1.10;;;23.90;99.90;;;;;;5067954;28;20447;-68
2023/07/18 11:51:32;;;;;;;4.47;1.00;;;23.80;99.90;;;;;;5067518;28;20405;-68
2023/07/18 11:53:59;;;;;;;3.92;1.10;;;23.70;99.90;;;;;;5064865;28;20875;-68
2023/07/18 11:56:24;;;;;;;4.28;0.95;;;23.60;99.90;;;;;;5067960;28;20780;-68
2023/07/18 11:58:50;;;;;;;4.73;1.10;;;23.50;99.90;;;;;;5067225;28;20420;-69
2023/07/18 12:01:15;;;;;;;9.93;1.30;;;23.30;99.90;;;;;;5067366;28;20406;-68
2023/07/18 12:03:41;;;;;;;2.95;0.70;;;23.30;99.90;;;;;;5082787;28;20404;-68
2023/07/18 12:06:06;;;;;;;3.58;0.73;;;23.30;99.90;;;;;;5067552;28;20526;-69
2023/07/18 12:08:32;;;;;;;3.63;0.77;;;23.20;99.90;;;;;;5067740;28;20392;-68
2023/07/18 12:10:58;;;;;;;3.50;0.90;;;23.30;99.90;;;;;;5066753;28;20399;-68
2023/07/18 12:13:23;;;;;;;3.88;1.00;;;23.30;99.90;;;;;;5067467;28;20404;-68
2023/07/18 12:15:49;;;;;;;6.10;1.30;;;23.20;99.90;;;;;;5067153;28;20407;-69
2023/07/18 12:18:14;;;;;;;4.47;1.10;;;23.20;99.90;;;;;;5067108;28;20403;-68
2023/07/18 12:20:40;;;;;;;4.93;0.95;;;23.00;99.90;;;;;;5066818;28;20797;-68
2023/07/18 12:23:06;;;;;;;4.18;0.90;;;22.90;99.90;;;;;;5067489;28;20549;-68
2023/07/18 12:25:31;;;;;;;3.20;0.70;;;22.70;99.90;;;;;;5066994;28;20403;-68
2023/07/18 12:28:02;;;;;;;4.93;1.00;;;22.40;99.90;;;;;;5068215;28;20400;-68
2023/07/18 12:30:30;;;;;;;3.47;0.80;;;22.30;99.90;;;;;;5036136;28;20487;-68
2023/07/18 12:32:56;;;;;;;3.00;0.60;;;22.10;99.90;;;;;;5070925;28;20423;-68
2023/07/18 12:35:22;;;;;;;2.27;0.50;;;21.90;99.90;;;;;;5070794;28;20486;-68
2023/07/18 12:37:47;;;;;;;3.33;0.68;;;21.80;99.90;;;;;;5070887;28;20515;-68
2023/07/18 12:40:13;;;;;;;3.20;0.70;;;21.80;99.90;;;;;;5035890;28;20774;-68
2023/07/18 12:42:39;;;;;;;5.47;1.10;;;21.70;99.90;;;;;;5071170;28;20793;-68
2023/07/18 12:45:05;;;;;;;5.32;1.33;;;21.60;99.90;;;;;;5070831;28;20407;-68